sensor_id;sensor_type;location;lat;lon;timestamp;P1;durP1;ratioP1;P2;durP2;ratioP2
20090;SDS011;10205;49.678;6.560;2023-04-05T00:00:11;4.50;;;2.63;;
20090;SDS011;10205;49.678;6.560;2023-04-05T00:02:39;2.80;;;2.40;;
20090;SDS011;10205;49.678;6.560;2023-04-05T00:05:08;3.13;;;2.67;;
20090;SDS011;10205;49.678;6.560;2023-04-05T00:07:36;5.47;;;2.93;;
20090;SDS011;10205;49.678;6.560;2023-04-05T00:10:03;3.00;;;2.70;;
20090;SDS011;10205;49.678;6.560;2023-04-05T00:12:31;2.58;;;2.38;;
20090;SDS011;10205;49.678;6.560;2023-04-05T00:14:59;3.10;;;2.80;;
20090;SDS011;10205;49.678;6.560;2023-04-05T00:17:26;3.15;;;2.72;;
20090;SDS011;10205;49.678;6.560;2023-04-05T00:19:55;4.10;;;2.77;;
20090;SDS011;10205;49.678;6.560;2023-04-05T00:22:23;2.88;;;2.50;;
20090;SDS011;10205;49.678;6.560;2023-04-05T00:24:51;3.30;;;2.65;;
20090;SDS011;10205;49.678;6.560;2023-04-05T00:27:18;4.37;;;2.80;;
20090;SDS011;10205;49.678;6.560;2023-04-05T00:29:45;4.20;;;2.30;;
20090;SDS011;10205;49.678;6.560;2023-04-05T00:32:13;2.60;;;2.37;;
20090;SDS011;10205;49.678;6.560;2023-04-05T00:34:40;3.53;;;2.70;;
20090;SDS011;10205;49.678;6.560;2023-04-05T00:37:07;3.03;;;2.50;;
20090;SDS011;10205;49.678;6.560;2023-04-05T00:39:37;4.17;;;2.90;;
20090;SDS011;10205;49.678;6.560;2023-04-05T00:42:05;3.00;;;2.70;;
20090;SDS011;10205;49.678;6.560;2023-04-05T00:44:33;4.00;;;2.80;;
20090;SDS011;10205;49.678;6.560;2023-04-05T00:47:01;4.30;;;2.70;;
20090;SDS011;10205;49.678;6.560;2023-04-05T00:49:31;3.53;;;2.60;;
20090;SDS011;10205;49.678;6.560;2023-04-05T00:52:00;3.27;;;2.70;;
20090;SDS011;10205;49.678;6.560;2023-04-05T00:54:28;3.03;;;2.73;;
20090;SDS011;10205;49.678;6.560;2023-04-05T00:56:57;4.53;;;2.70;;
20090;SDS011;10205;49.678;6.560;2023-04-05T00:59:25;3.63;;;2.67;;
20090;SDS011;10205;49.678;6.560;2023-04-05T01:01:54;2.60;;;2.40;;
20090;SDS011;10205;49.678;6.560;2023-04-05T01:04:29;2.70;;;2.50;;
20090;SDS011;10205;49.678;6.560;2023-04-05T01:07:03;2.93;;;2.37;;
20090;SDS011;10205;49.678;6.560;2023-04-05T01:09:40;3.00;;;2.47;;
20090;SDS011;10205;49.678;6.560;2023-04-05T01:12:20;3.10;;;2.43;;
20090;SDS011;10205;49.678;6.560;2023-04-05T01:14:52;2.87;;;2.57;;
20090;SDS011;10205;49.678;6.560;2023-04-05T01:17:21;2.80;;;2.50;;
20090;SDS011;10205;49.678;6.560;2023-04-05T01:19:53;3.07;;;2.27;;
20090;SDS011;10205;49.678;6.560;2023-04-05T01:32:28;6.63;;;2.30;;
20090;SDS011;10205;49.678;6.560;2023-04-05T01:35:08;3.70;;;2.70;;
20090;SDS011;10205;49.678;6.560;2023-04-05T01:37:48;2.50;;;2.20;;
20090;SDS011;10205;49.678;6.560;2023-04-05T01:40:24;2.47;;;2.27;;
20090;SDS011;10205;49.678;6.560;2023-04-05T01:42:53;2.50;;;2.30;;
20090;SDS011;10205;49.678;6.560;2023-04-05T01:45:21;2.83;;;2.57;;
20090;SDS011;10205;49.678;6.560;2023-04-05T01:47:49;3.57;;;2.60;;
20090;SDS011;10205;49.678;6.560;2023-04-05T01:50:16;2.73;;;2.53;;
20090;SDS011;10205;49.678;6.560;2023-04-05T01:52:44;2.83;;;2.57;;
20090;SDS011;10205;49.678;6.560;2023-04-05T01:55:12;2.60;;;2.40;;
20090;SDS011;10205;49.678;6.560;2023-04-05T01:57:39;3.23;;;2.83;;
20090;SDS011;10205;49.678;6.560;2023-04-05T02:00:07;3.20;;;2.50;;
20090;SDS011;10205;49.678;6.560;2023-04-05T02:02:37;3.10;;;2.80;;
20090;SDS011;10205;49.678;6.560;2023-04-05T02:05:05;3.17;;;2.50;;
20090;SDS011;10205;49.678;6.560;2023-04-05T02:07:33;3.07;;;2.50;;
20090;SDS011;10205;49.678;6.560;2023-04-05T02:10:00;2.50;;;2.30;;
20090;SDS011;10205;49.678;6.560;2023-04-05T02:12:28;2.70;;;2.50;;
20090;SDS011;10205;49.678;6.560;2023-04-05T02:14:55;2.73;;;2.50;;
20090;SDS011;10205;49.678;6.560;2023-04-05T02:17:23;2.97;;;2.60;;
20090;SDS011;10205;49.678;6.560;2023-04-05T02:19:51;2.57;;;2.37;;
20090;SDS011;10205;49.678;6.560;2023-04-05T02:22:26;2.83;;;2.57;;
20090;SDS011;10205;49.678;6.560;2023-04-05T02:24:53;2.50;;;2.27;;
20090;SDS011;10205;49.678;6.560;2023-04-05T02:27:21;3.40;;;2.70;;
20090;SDS011;10205;49.678;6.560;2023-04-05T02:29:48;3.50;;;2.93;;
20090;SDS011;10205;49.678;6.560;2023-04-05T02:32:15;2.77;;;2.47;;
20090;SDS011;10205;49.678;6.560;2023-04-05T02:34:43;3.50;;;2.50;;
20090;SDS011;10205;49.678;6.560;2023-04-05T02:37:11;2.90;;;2.60;;
20090;SDS011;10205;49.678;6.560;2023-04-05T02:39:38;3.60;;;2.77;;
20090;SDS011;10205;49.678;6.560;2023-04-05T02:42:05;3.07;;;2.30;;
20090;SDS011;10205;49.678;6.560;2023-04-05T02:44:33;2.87;;;2.67;;
20090;SDS011;10205;49.678;6.560;2023-04-05T02:47:00;3.10;;;2.80;;
20090;SDS011;10205;49.678;6.560;2023-04-05T02:49:27;2.90;;;2.60;;
20090;SDS011;10205;49.678;6.560;2023-04-05T02:51:54;3.80;;;2.77;;
20090;SDS011;10205;49.678;6.560;2023-04-05T02:54:23;3.80;;;2.73;;
20090;SDS011;10205;49.678;6.560;2023-04-05T02:56:50;3.47;;;3.17;;
20090;SDS011;10205;49.678;6.560;2023-04-05T02:59:19;2.80;;;2.47;;
20090;SDS011;10205;49.678;6.560;2023-04-05T03:01:46;3.57;;;2.70;;
20090;SDS011;10205;49.678;6.560;2023-04-05T03:04:14;3.23;;;3.03;;
20090;SDS011;10205;49.678;6.560;2023-04-05T03:06:41;3.67;;;2.90;;
20090;SDS011;10205;49.678;6.560;2023-04-05T03:09:12;3.33;;;2.57;;
20090;SDS011;10205;49.678;6.560;2023-04-05T03:11:41;3.63;;;2.27;;
20090;SDS011;10205;49.678;6.560;2023-04-05T03:14:08;3.00;;;2.63;;
20090;SDS011;10205;49.678;6.560;2023-04-05T03:16:36;2.97;;;2.53;;
20090;SDS011;10205;49.678;6.560;2023-04-05T03:19:04;2.70;;;2.40;;
20090;SDS011;10205;49.678;6.560;2023-04-05T03:21:32;2.70;;;2.50;;
20090;SDS011;10205;49.678;6.560;2023-04-05T03:23:59;3.30;;;2.87;;
20090;SDS011;10205;49.678;6.560;2023-04-05T03:26:27;3.20;;;2.43;;
20090;SDS011;10205;49.678;6.560;2023-04-05T03:28:56;2.70;;;2.50;;
20090;SDS011;10205;49.678;6.560;2023-04-05T03:31:23;3.07;;;2.83;;
20090;SDS011;10205;49.678;6.560;2023-04-05T03:33:50;2.63;;;2.43;;
20090;SDS011;10205;49.678;6.560;2023-04-05T03:36:17;2.87;;;2.60;;
20090;SDS011;10205;49.678;6.560;2023-04-05T03:38:44;3.63;;;2.30;;
20090;SDS011;10205;49.678;6.560;2023-04-05T03:41:12;4.40;;;3.00;;
20090;SDS011;10205;49.678;6.560;2023-04-05T03:43:45;3.03;;;2.67;;
20090;SDS011;10205;49.678;6.560;2023-04-05T03:46:14;2.90;;;2.70;;
20090;SDS011;10205;49.678;6.560;2023-04-05T03:48:42;2.47;;;2.27;;
20090;SDS011;10205;49.678;6.560;2023-04-05T03:51:09;2.67;;;2.47;;
20090;SDS011;10205;49.678;6.560;2023-04-05T03:53:37;3.00;;;2.40;;
20090;SDS011;10205;49.678;6.560;2023-04-05T03:56:05;3.07;;;2.40;;
20090;SDS011;10205;49.678;6.560;2023-04-05T03:58:33;3.00;;;2.70;;
20090;SDS011;10205;49.678;6.560;2023-04-05T04:01:00;2.90;;;2.50;;
20090;SDS011;10205;49.678;6.560;2023-04-05T04:03:32;3.63;;;2.80;;
20090;SDS011;10205;49.678;6.560;2023-04-05T04:06:01;2.77;;;2.43;;
20090;SDS011;10205;49.678;6.560;2023-04-05T04:08:29;3.10;;;2.80;;
20090;SDS011;10205;49.678;6.560;2023-04-05T04:10:56;2.90;;;2.37;;
20090;SDS011;10205;49.678;6.560;2023-04-05T04:13:24;4.53;;;2.93;;
20090;SDS011;10205;49.678;6.560;2023-04-05T04:15:51;3.63;;;2.70;;
20090;SDS011;10205;49.678;6.560;2023-04-05T04:18:18;3.33;;;3.00;;
20090;SDS011;10205;49.678;6.560;2023-04-05T04:20:46;3.00;;;2.70;;
20090;SDS011;10205;49.678;6.560;2023-04-05T04:23:16;4.40;;;3.20;;
20090;SDS011;10205;49.678;6.560;2023-04-05T04:25:44;3.10;;;2.80;;
20090;SDS011;10205;49.678;6.560;2023-04-05T04:28:14;3.10;;;2.50;;
20090;SDS011;10205;49.678;6.560;2023-04-05T04:30:43;3.10;;;2.70;;
20090;SDS011;10205;49.678;6.560;2023-04-05T04:33:10;3.20;;;2.70;;
20090;SDS011;10205;49.678;6.560;2023-04-05T04:35:38;3.07;;;2.77;;
20090;SDS011;10205;49.678;6.560;2023-04-05T04:38:07;4.40;;;2.70;;
20090;SDS011;10205;49.678;6.560;2023-04-05T04:40:35;3.17;;;2.50;;
20090;SDS011;10205;49.678;6.560;2023-04-05T04:43:03;2.77;;;2.57;;
20090;SDS011;10205;49.678;6.560;2023-04-05T04:45:31;2.80;;;2.60;;
20090;SDS011;10205;49.678;6.560;2023-04-05T04:48:01;2.93;;;2.70;;
20090;SDS011;10205;49.678;6.560;2023-04-05T04:50:30;3.20;;;2.73;;
20090;SDS011;10205;49.678;6.560;2023-04-05T04:52:58;2.97;;;2.50;;
20090;SDS011;10205;49.678;6.560;2023-04-05T04:55:27;3.30;;;2.70;;
20090;SDS011;10205;49.678;6.560;2023-04-05T04:57:55;5.40;;;2.87;;
20090;SDS011;10205;49.678;6.560;2023-04-05T05:00:22;4.60;;;2.80;;
20090;SDS011;10205;49.678;6.560;2023-04-05T05:02:50;3.10;;;2.80;;
20090;SDS011;10205;49.678;6.560;2023-04-05T05:05:20;3.77;;;2.60;;
20090;SDS011;10205;49.678;6.560;2023-04-05T05:07:47;3.10;;;2.70;;
20090;SDS011;10205;49.678;6.560;2023-04-05T05:10:19;5.00;;;3.13;;
20090;SDS011;10205;49.678;6.560;2023-04-05T05:12:48;3.17;;;2.87;;
20090;SDS011;10205;49.678;6.560;2023-04-05T05:15:16;4.07;;;3.10;;
20090;SDS011;10205;49.678;6.560;2023-04-05T05:17:44;3.30;;;3.00;;
20090;SDS011;10205;49.678;6.560;2023-04-05T05:20:11;3.40;;;2.93;;
20090;SDS011;10205;49.678;6.560;2023-04-05T05:22:38;3.97;;;3.00;;
20090;SDS011;10205;49.678;6.560;2023-04-05T05:25:07;2.83;;;2.60;;
20090;SDS011;10205;49.678;6.560;2023-04-05T05:27:36;3.83;;;2.80;;
20090;SDS011;10205;49.678;6.560;2023-04-05T05:30:05;3.30;;;3.00;;
20090;SDS011;10205;49.678;6.560;2023-04-05T05:32:34;3.63;;;2.67;;
20090;SDS011;10205;49.678;6.560;2023-04-05T05:35:01;3.50;;;2.87;;
20090;SDS011;10205;49.678;6.560;2023-04-05T05:37:29;2.70;;;2.50;;
20090;SDS011;10205;49.678;6.560;2023-04-05T05:39:58;3.10;;;2.80;;
20090;SDS011;10205;49.678;6.560;2023-04-05T05:42:26;3.30;;;3.00;;
20090;SDS011;10205;49.678;6.560;2023-04-05T05:44:53;3.63;;;3.33;;
20090;SDS011;10205;49.678;6.560;2023-04-05T05:47:21;4.27;;;2.83;;
20090;SDS011;10205;49.678;6.560;2023-04-05T05:49:48;3.60;;;3.00;;
20090;SDS011;10205;49.678;6.560;2023-04-05T05:52:16;3.07;;;2.77;;
20090;SDS011;10205;49.678;6.560;2023-04-05T05:54:43;4.00;;;3.20;;
20090;SDS011;10205;49.678;6.560;2023-04-05T05:57:11;3.83;;;3.23;;
20090;SDS011;10205;49.678;6.560;2023-04-05T05:59:38;3.20;;;2.90;;
20090;SDS011;10205;49.678;6.560;2023-04-05T06:02:05;4.90;;;3.13;;
20090;SDS011;10205;49.678;6.560;2023-04-05T06:04:34;3.67;;;2.83;;
20090;SDS011;10205;49.678;6.560;2023-04-05T06:07:02;4.50;;;2.90;;
20090;SDS011;10205;49.678;6.560;2023-04-05T06:09:29;3.60;;;2.97;;
20090;SDS011;10205;49.678;6.560;2023-04-05T06:11:59;6.17;;;3.77;;
20090;SDS011;10205;49.678;6.560;2023-04-05T06:14:27;4.10;;;3.57;;
20090;SDS011;10205;49.678;6.560;2023-04-05T06:16:55;4.17;;;3.70;;
20090;SDS011;10205;49.678;6.560;2023-04-05T06:19:22;3.90;;;3.50;;
20090;SDS011;10205;49.678;6.560;2023-04-05T06:21:51;5.03;;;3.33;;
20090;SDS011;10205;49.678;6.560;2023-04-05T06:24:19;3.63;;;3.27;;
20090;SDS011;10205;49.678;6.560;2023-04-05T06:26:46;3.53;;;3.17;;
20090;SDS011;10205;49.678;6.560;2023-04-05T06:29:14;3.60;;;3.27;;
20090;SDS011;10205;49.678;6.560;2023-04-05T06:31:42;5.57;;;3.50;;
20090;SDS011;10205;49.678;6.560;2023-04-05T06:34:10;3.50;;;3.13;;
20090;SDS011;10205;49.678;6.560;2023-04-05T06:36:37;3.60;;;3.30;;
20090;SDS011;10205;49.678;6.560;2023-04-05T06:39:06;3.70;;;3.40;;
20090;SDS011;10205;49.678;6.560;2023-04-05T06:41:33;4.83;;;3.40;;
20090;SDS011;10205;49.678;6.560;2023-04-05T06:44:01;4.03;;;3.53;;
20090;SDS011;10205;49.678;6.560;2023-04-05T06:46:31;4.70;;;3.73;;
20090;SDS011;10205;49.678;6.560;2023-04-05T06:48:59;4.73;;;3.47;;
20090;SDS011;10205;49.678;6.560;2023-04-05T06:51:26;4.60;;;3.23;;
20090;SDS011;10205;49.678;6.560;2023-04-05T06:53:53;4.13;;;3.70;;
20090;SDS011;10205;49.678;6.560;2023-04-05T06:56:22;4.87;;;3.50;;
20090;SDS011;10205;49.678;6.560;2023-04-05T06:58:49;7.13;;;3.60;;
20090;SDS011;10205;49.678;6.560;2023-04-05T07:01:17;3.77;;;3.37;;
20090;SDS011;10205;49.678;6.560;2023-04-05T07:03:44;3.90;;;3.40;;
20090;SDS011;10205;49.678;6.560;2023-04-05T07:06:11;4.10;;;3.10;;
20090;SDS011;10205;49.678;6.560;2023-04-05T07:08:38;3.77;;;3.30;;
20090;SDS011;10205;49.678;6.560;2023-04-05T07:11:06;4.03;;;3.30;;
20090;SDS011;10205;49.678;6.560;2023-04-05T07:13:34;4.70;;;3.70;;
20090;SDS011;10205;49.678;6.560;2023-04-05T07:16:01;7.00;;;3.73;;
20090;SDS011;10205;49.678;6.560;2023-04-05T07:18:29;4.13;;;3.07;;
20090;SDS011;10205;49.678;6.560;2023-04-05T07:20:57;3.67;;;3.20;;
20090;SDS011;10205;49.678;6.560;2023-04-05T07:23:28;4.13;;;3.30;;
20090;SDS011;10205;49.678;6.560;2023-04-05T07:25:59;5.63;;;4.07;;
20090;SDS011;10205;49.678;6.560;2023-04-05T07:28:28;5.67;;;3.73;;
20090;SDS011;10205;49.678;6.560;2023-04-05T07:30:58;4.03;;;3.63;;
20090;SDS011;10205;49.678;6.560;2023-04-05T07:33:25;3.67;;;3.10;;
20090;SDS011;10205;49.678;6.560;2023-04-05T07:35:53;3.77;;;3.40;;
20090;SDS011;10205;49.678;6.560;2023-04-05T07:38:20;4.67;;;3.47;;
20090;SDS011;10205;49.678;6.560;2023-04-05T07:40:48;4.23;;;3.83;;
20090;SDS011;10205;49.678;6.560;2023-04-05T07:43:16;6.53;;;3.77;;
20090;SDS011;10205;49.678;6.560;2023-04-05T07:45:44;4.53;;;3.80;;
20090;SDS011;10205;49.678;6.560;2023-04-05T07:48:13;7.70;;;4.20;;
20090;SDS011;10205;49.678;6.560;2023-04-05T07:50:40;4.03;;;3.67;;
20090;SDS011;10205;49.678;6.560;2023-04-05T07:53:11;5.80;;;3.70;;
20090;SDS011;10205;49.678;6.560;2023-04-05T07:55:38;4.17;;;3.77;;
20090;SDS011;10205;49.678;6.560;2023-04-05T07:58:06;4.57;;;3.70;;
20090;SDS011;10205;49.678;6.560;2023-04-05T08:00:34;5.00;;;3.40;;
20090;SDS011;10205;49.678;6.560;2023-04-05T08:03:02;5.63;;;3.80;;
20090;SDS011;10205;49.678;6.560;2023-04-05T08:05:31;4.17;;;3.70;;
20090;SDS011;10205;49.678;6.560;2023-04-05T08:07:58;4.57;;;3.47;;
20090;SDS011;10205;49.678;6.560;2023-04-05T08:10:26;3.87;;;3.47;;
20090;SDS011;10205;49.678;6.560;2023-04-05T08:12:53;4.40;;;4.03;;
20090;SDS011;10205;49.678;6.560;2023-04-05T08:15:20;5.77;;;3.30;;
20090;SDS011;10205;49.678;6.560;2023-04-05T08:17:47;5.07;;;3.67;;
20090;SDS011;10205;49.678;6.560;2023-04-05T08:20:14;5.10;;;3.60;;
20090;SDS011;10205;49.678;6.560;2023-04-05T08:22:43;4.37;;;3.80;;
20090;SDS011;10205;49.678;6.560;2023-04-05T08:25:11;5.93;;;3.70;;
20090;SDS011;10205;49.678;6.560;2023-04-05T08:27:38;4.70;;;3.43;;
20090;SDS011;10205;49.678;6.560;2023-04-05T08:30:06;4.60;;;3.63;;
20090;SDS011;10205;49.678;6.560;2023-04-05T08:32:34;4.70;;;4.10;;
20090;SDS011;10205;49.678;6.560;2023-04-05T08:35:01;6.00;;;3.70;;
20090;SDS011;10205;49.678;6.560;2023-04-05T08:37:32;5.97;;;3.60;;
20090;SDS011;10205;49.678;6.560;2023-04-05T08:40:01;4.60;;;3.90;;
20090;SDS011;10205;49.678;6.560;2023-04-05T08:42:31;4.97;;;3.70;;
20090;SDS011;10205;49.678;6.560;2023-04-05T08:45:02;4.17;;;3.73;;
20090;SDS011;10205;49.678;6.560;2023-04-05T08:47:34;7.13;;;4.27;;
20090;SDS011;10205;49.678;6.560;2023-04-05T08:50:03;8.20;;;4.07;;
20090;SDS011;10205;49.678;6.560;2023-04-05T08:52:32;5.90;;;4.23;;
20090;SDS011;10205;49.678;6.560;2023-04-05T08:55:04;5.33;;;4.03;;
20090;SDS011;10205;49.678;6.560;2023-04-05T08:57:32;4.57;;;3.77;;
20090;SDS011;10205;49.678;6.560;2023-04-05T09:00:08;4.80;;;4.10;;
20090;SDS011;10205;49.678;6.560;2023-04-05T09:02:37;4.87;;;3.80;;
20090;SDS011;10205;49.678;6.560;2023-04-05T09:05:07;4.70;;;3.70;;
20090;SDS011;10205;49.678;6.560;2023-04-05T09:07:36;6.33;;;3.83;;
20090;SDS011;10205;49.678;6.560;2023-04-05T09:10:06;5.07;;;4.37;;
20090;SDS011;10205;49.678;6.560;2023-04-05T09:12:38;4.90;;;3.53;;
20090;SDS011;10205;49.678;6.560;2023-04-05T09:15:06;5.90;;;4.00;;
20090;SDS011;10205;49.678;6.560;2023-04-05T09:17:34;5.53;;;3.40;;
20090;SDS011;10205;49.678;6.560;2023-04-05T09:20:05;4.60;;;3.63;;
20090;SDS011;10205;49.678;6.560;2023-04-05T09:22:41;4.57;;;3.80;;
20090;SDS011;10205;49.678;6.560;2023-04-05T09:25:10;4.80;;;3.73;;
20090;SDS011;10205;49.678;6.560;2023-04-05T09:27:52;8.53;;;4.17;;
20090;SDS011;10205;49.678;6.560;2023-04-05T09:30:21;5.73;;;4.27;;
20090;SDS011;10205;49.678;6.560;2023-04-05T09:32:49;5.27;;;4.30;;
20090;SDS011;10205;49.678;6.560;2023-04-05T09:35:18;6.10;;;4.60;;
20090;SDS011;10205;49.678;6.560;2023-04-05T09:37:52;4.50;;;3.83;;
20090;SDS011;10205;49.678;6.560;2023-04-05T09:40:23;4.53;;;3.53;;
20090;SDS011;10205;49.678;6.560;2023-04-05T09:43:08;5.33;;;3.77;;
20090;SDS011;10205;49.678;6.560;2023-04-05T09:45:37;4.67;;;3.63;;
20090;SDS011;10205;49.678;6.560;2023-04-05T09:48:06;3.50;;;3.20;;
20090;SDS011;10205;49.678;6.560;2023-04-05T09:50:34;3.53;;;3.20;;
20090;SDS011;10205;49.678;6.560;2023-04-05T09:53:06;4.60;;;3.33;;
20090;SDS011;10205;49.678;6.560;2023-04-05T09:55:41;4.43;;;2.97;;
20090;SDS011;10205;49.678;6.560;2023-04-05T09:58:10;4.15;;;3.15;;
20090;SDS011;10205;49.678;6.560;2023-04-05T10:00:38;3.92;;;3.53;;
20090;SDS011;10205;49.678;6.560;2023-04-05T10:03:17;5.97;;;3.20;;
20090;SDS011;10205;49.678;6.560;2023-04-05T10:05:44;3.85;;;3.33;;
20090;SDS011;10205;49.678;6.560;2023-04-05T10:08:13;4.88;;;3.17;;
20090;SDS011;10205;49.678;6.560;2023-04-05T10:10:44;3.63;;;2.78;;
20090;SDS011;10205;49.678;6.560;2023-04-05T10:13:13;5.25;;;3.83;;
20090;SDS011;10205;49.678;6.560;2023-04-05T10:15:41;3.63;;;3.33;;
20090;SDS011;10205;49.678;6.560;2023-04-05T10:18:17;4.60;;;3.10;;
20090;SDS011;10205;49.678;6.560;2023-04-05T10:20:50;5.20;;;3.45;;
20090;SDS011;10205;49.678;6.560;2023-04-05T10:23:30;3.22;;;2.92;;
20090;SDS011;10205;49.678;6.560;2023-04-05T10:26:03;3.33;;;2.97;;
20090;SDS011;10205;49.678;6.560;2023-04-05T10:28:40;3.38;;;3.08;;
20090;SDS011;10205;49.678;6.560;2023-04-05T10:31:14;4.63;;;3.30;;
20090;SDS011;10205;49.678;6.560;2023-04-05T10:33:52;4.10;;;3.33;;
20090;SDS011;10205;49.678;6.560;2023-04-05T10:36:28;4.50;;;3.30;;
20090;SDS011;10205;49.678;6.560;2023-04-05T10:39:06;3.60;;;3.30;;
20090;SDS011;10205;49.678;6.560;2023-04-05T10:41:47;4.13;;;3.50;;
20090;SDS011;10205;49.678;6.560;2023-04-05T10:44:21;3.97;;;3.03;;
20090;SDS011;10205;49.678;6.560;2023-04-05T10:46:49;3.47;;;3.03;;
20090;SDS011;10205;49.678;6.560;2023-04-05T10:49:19;4.82;;;3.30;;
20090;SDS011;10205;49.678;6.560;2023-04-05T10:51:54;5.10;;;3.42;;
20090;SDS011;10205;49.678;6.560;2023-04-05T10:54:23;4.43;;;3.38;;
20090;SDS011;10205;49.678;6.560;2023-04-05T10:56:53;3.90;;;3.28;;
20090;SDS011;10205;49.678;6.560;2023-04-05T10:59:21;4.68;;;3.50;;
20090;SDS011;10205;49.678;6.560;2023-04-05T11:01:52;4.50;;;3.63;;
20090;SDS011;10205;49.678;6.560;2023-04-05T11:04:20;4.05;;;3.63;;
20090;SDS011;10205;49.678;6.560;2023-04-05T11:06:48;3.33;;;2.88;;
20090;SDS011;10205;49.678;6.560;2023-04-05T11:09:49;3.15;;;2.95;;
20090;SDS011;10205;49.678;6.560;2023-04-05T11:15:34;4.10;;;3.13;;
20090;SDS011;10205;49.678;6.560;2023-04-05T11:18:04;4.20;;;3.38;;
20090;SDS011;10205;49.678;6.560;2023-04-05T11:20:41;4.18;;;3.20;;
20090;SDS011;10205;49.678;6.560;2023-04-05T11:23:16;5.90;;;3.40;;
20090;SDS011;10205;49.678;6.560;2023-04-05T11:25:48;3.78;;;3.10;;
20090;SDS011;10205;49.678;6.560;2023-04-05T11:28:27;4.13;;;3.30;;
20090;SDS011;10205;49.678;6.560;2023-04-05T11:30:57;3.40;;;3.10;;
20090;SDS011;10205;49.678;6.560;2023-04-05T11:33:55;5.53;;;3.10;;
20090;SDS011;10205;49.678;6.560;2023-04-05T11:36:31;3.80;;;2.72;;
20090;SDS011;10205;49.678;6.560;2023-04-05T11:41:56;4.30;;;3.00;;
20090;SDS011;10205;49.678;6.560;2023-04-05T11:44:28;3.97;;;3.00;;
20090;SDS011;10205;49.678;6.560;2023-04-05T11:47:05;5.82;;;3.38;;
20090;SDS011;10205;49.678;6.560;2023-04-05T11:49:33;3.65;;;2.83;;
20090;SDS011;10205;49.678;6.560;2023-04-05T11:52:08;3.45;;;2.60;;
20090;SDS011;10205;49.678;6.560;2023-04-05T11:54:40;4.63;;;3.08;;
20090;SDS011;10205;49.678;6.560;2023-04-05T11:57:13;5.03;;;3.30;;
20090;SDS011;10205;49.678;6.560;2023-04-05T11:59:48;3.33;;;3.03;;
20090;SDS011;10205;49.678;6.560;2023-04-05T12:02:20;3.42;;;3.00;;
20090;SDS011;10205;49.678;6.560;2023-04-05T12:04:52;3.78;;;3.22;;
20090;SDS011;10205;49.678;6.560;2023-04-05T12:07:20;11.95;;;3.78;;
20090;SDS011;10205;49.678;6.560;2023-04-05T12:10:00;5.10;;;3.05;;
20090;SDS011;10205;49.678;6.560;2023-04-05T12:12:33;3.92;;;3.08;;
20090;SDS011;10205;49.678;6.560;2023-04-05T12:15:05;4.80;;;3.17;;
20090;SDS011;10205;49.678;6.560;2023-04-05T12:17:41;5.57;;;3.45;;
20090;SDS011;10205;49.678;6.560;2023-04-05T12:20:12;3.63;;;3.20;;
20090;SDS011;10205;49.678;6.560;2023-04-05T12:22:42;5.85;;;3.42;;
20090;SDS011;10205;49.678;6.560;2023-04-05T12:25:12;7.22;;;3.42;;
20090;SDS011;10205;49.678;6.560;2023-04-05T12:27:40;3.40;;;2.95;;
20090;SDS011;10205;49.678;6.560;2023-04-05T12:30:10;4.43;;;3.15;;
20090;SDS011;10205;49.678;6.560;2023-04-05T12:32:40;5.03;;;2.80;;
20090;SDS011;10205;49.678;6.560;2023-04-05T12:35:14;4.07;;;3.30;;
20090;SDS011;10205;49.678;6.560;2023-04-05T12:37:43;5.63;;;3.72;;
20090;SDS011;10205;49.678;6.560;2023-04-05T12:40:11;3.63;;;2.92;;
20090;SDS011;10205;49.678;6.560;2023-04-05T12:42:39;4.20;;;3.40;;
20090;SDS011;10205;49.678;6.560;2023-04-05T12:45:10;5.32;;;3.25;;
20090;SDS011;10205;49.678;6.560;2023-04-05T12:47:48;4.63;;;3.20;;
20090;SDS011;10205;49.678;6.560;2023-04-05T12:50:18;4.78;;;3.22;;
20090;SDS011;10205;49.678;6.560;2023-04-05T12:52:55;4.75;;;3.38;;
20090;SDS011;10205;49.678;6.560;2023-04-05T12:55:27;4.32;;;3.30;;
20090;SDS011;10205;49.678;6.560;2023-04-05T12:57:55;3.95;;;2.72;;
20090;SDS011;10205;49.678;6.560;2023-04-05T13:00:27;5.15;;;3.00;;
20090;SDS011;10205;49.678;6.560;2023-04-05T13:02:57;3.60;;;2.97;;
20090;SDS011;10205;49.678;6.560;2023-04-05T13:05:25;4.97;;;3.10;;
20090;SDS011;10205;49.678;6.560;2023-04-05T13:07:53;3.45;;;3.15;;
20090;SDS011;10205;49.678;6.560;2023-04-05T13:10:21;3.40;;;3.10;;
20090;SDS011;10205;49.678;6.560;2023-04-05T13:12:50;3.13;;;2.80;;
20090;SDS011;10205;49.678;6.560;2023-04-05T13:15:17;5.50;;;3.08;;
20090;SDS011;10205;49.678;6.560;2023-04-05T13:17:46;3.58;;;3.28;;
20090;SDS011;10205;49.678;6.560;2023-04-05T13:20:16;3.92;;;3.55;;
20090;SDS011;10205;49.678;6.560;2023-04-05T13:22:44;7.05;;;3.35;;
20090;SDS011;10205;49.678;6.560;2023-04-05T13:25:12;3.42;;;3.13;;
20090;SDS011;10205;49.678;6.560;2023-04-05T13:27:40;3.10;;;2.78;;
20090;SDS011;10205;49.678;6.560;2023-04-05T13:30:08;3.33;;;3.03;;
20090;SDS011;10205;49.678;6.560;2023-04-05T13:32:36;4.65;;;3.28;;
20090;SDS011;10205;49.678;6.560;2023-04-05T13:35:05;3.65;;;3.15;;
20090;SDS011;10205;49.678;6.560;2023-04-05T13:37:37;3.75;;;2.97;;
20090;SDS011;10205;49.678;6.560;2023-04-05T13:40:13;3.65;;;3.10;;
20090;SDS011;10205;49.678;6.560;2023-04-05T13:42:41;4.43;;;3.08;;
20090;SDS011;10205;49.678;6.560;2023-04-05T13:45:09;3.33;;;3.03;;
20090;SDS011;10205;49.678;6.560;2023-04-05T13:47:37;3.78;;;3.28;;
20090;SDS011;10205;49.678;6.560;2023-04-05T13:50:06;4.75;;;3.10;;
20090;SDS011;10205;49.678;6.560;2023-04-05T13:52:34;5.35;;;3.17;;
20090;SDS011;10205;49.678;6.560;2023-04-05T13:55:02;4.35;;;3.08;;
20090;SDS011;10205;49.678;6.560;2023-04-05T13:57:29;6.50;;;2.95;;
20090;SDS011;10205;49.678;6.560;2023-04-05T13:59:57;3.72;;;2.90;;
20090;SDS011;10205;49.678;6.560;2023-04-05T14:02:24;3.75;;;3.05;;
20090;SDS011;10205;49.678;6.560;2023-04-05T14:04:52;3.83;;;3.15;;
20090;SDS011;10205;49.678;6.560;2023-04-05T14:07:21;4.28;;;3.17;;
20090;SDS011;10205;49.678;6.560;2023-04-05T14:09:49;4.30;;;3.25;;
20090;SDS011;10205;49.678;6.560;2023-04-05T14:12:16;4.78;;;3.28;;
20090;SDS011;10205;49.678;6.560;2023-04-05T14:14:44;4.57;;;3.25;;
20090;SDS011;10205;49.678;6.560;2023-04-05T14:17:11;4.53;;;2.97;;
20090;SDS011;10205;49.678;6.560;2023-04-05T14:19:39;3.85;;;3.10;;
20090;SDS011;10205;49.678;6.560;2023-04-05T14:22:06;3.75;;;3.30;;
20090;SDS011;10205;49.678;6.560;2023-04-05T14:24:35;3.97;;;3.10;;
20090;SDS011;10205;49.678;6.560;2023-04-05T14:27:02;3.72;;;2.90;;
20090;SDS011;10205;49.678;6.560;2023-04-05T14:29:30;6.85;;;2.90;;
20090;SDS011;10205;49.678;6.560;2023-04-05T14:31:58;3.72;;;3.17;;
20090;SDS011;10205;49.678;6.560;2023-04-05T14:34:25;3.50;;;3.20;;
20090;SDS011;10205;49.678;6.560;2023-04-05T14:36:52;3.47;;;3.10;;
20090;SDS011;10205;49.678;6.560;2023-04-05T14:39:22;3.90;;;3.42;;
20090;SDS011;10205;49.678;6.560;2023-04-05T14:41:51;5.65;;;3.65;;
20090;SDS011;10205;49.678;6.560;2023-04-05T14:44:18;3.70;;;3.20;;
20090;SDS011;10205;49.678;6.560;2023-04-05T14:46:45;4.32;;;3.10;;
20090;SDS011;10205;49.678;6.560;2023-04-05T14:49:15;3.63;;;3.30;;
20090;SDS011;10205;49.678;6.560;2023-04-05T14:51:43;5.25;;;3.28;;
20090;SDS011;10205;49.678;6.560;2023-04-05T14:54:10;4.07;;;3.15;;
20090;SDS011;10205;49.678;6.560;2023-04-05T14:56:37;4.70;;;2.95;;
20090;SDS011;10205;49.678;6.560;2023-04-05T14:59:06;3.67;;;2.88;;
20090;SDS011;10205;49.678;6.560;2023-04-05T15:01:34;5.30;;;3.00;;
20090;SDS011;10205;49.678;6.560;2023-04-05T15:04:01;3.83;;;3.20;;
20090;SDS011;10205;49.678;6.560;2023-04-05T15:06:29;6.40;;;3.28;;
20090;SDS011;10205;49.678;6.560;2023-04-05T15:08:57;3.42;;;3.05;;
20090;SDS011;10205;49.678;6.560;2023-04-05T15:11:24;3.45;;;2.88;;
20090;SDS011;10205;49.678;6.560;2023-04-05T15:13:52;2.92;;;2.63;;
20090;SDS011;10205;49.678;6.560;2023-04-05T15:16:21;3.28;;;2.97;;